sensor_id;sensor_type;location;lat;lon;timestamp;temperature;humidity
7958;DHT22;4024;52.172;5.378;2023-02-01T00:02:06;7.80;99.90
7958;DHT22;4024;52.172;5.378;2023-02-01T00:04:32;7.80;99.90
7958;DHT22;4024;52.172;5.378;2023-02-01T00:06:57;7.90;99.90
7958;DHT22;4024;52.172;5.378;2023-02-01T00:09:24;7.90;99.90
7958;DHT22;4024;52.172;5.378;2023-02-01T00:11:50;7.90;99.90
7958;DHT22;4024;52.172;5.378;2023-02-01T00:14:15;7.90;99.90
7958;DHT22;4024;52.172;5.378;2023-02-01T00:16:42;7.90;99.90
7958;DHT22;4024;52.172;5.378;2023-02-01T00:19:11;7.90;99.90
7958;DHT22;4024;52.172;5.378;2023-02-01T00:21:37;7.90;99.90
7958;DHT22;4024;52.172;5.378;2023-02-01T00:24:03;8.00;99.90
7958;DHT22;4024;52.172;5.378;2023-02-01T00:26:33;7.90;99.90
7958;DHT22;4024;52.172;5.378;2023-02-01T00:29:01;8.00;99.90
7958;DHT22;4024;52.172;5.378;2023-02-01T00:31:27;7.90;99.90
7958;DHT22;4024;52.172;5.378;2023-02-01T00:33:53;8.00;99.90
7958;DHT22;4024;52.172;5.378;2023-02-01T00:36:19;8.00;99.90
7958;DHT22;4024;52.172;5.378;2023-02-01T00:38:44;8.00;99.90
7958;DHT22;4024;52.172;5.378;2023-02-01T00:41:19;8.00;99.90
7958;DHT22;4024;52.172;5.378;2023-02-01T00:43:46;8.00;99.90
7958;DHT22;4024;52.172;5.378;2023-02-01T00:46:13;8.10;99.90
7958;DHT22;4024;52.172;5.378;2023-02-01T00:48:39;8.10;99.90
7958;DHT22;4024;52.172;5.378;2023-02-01T00:51:09;8.10;99.90
7958;DHT22;4024;52.172;5.378;2023-02-01T00:53:35;8.10;99.90
7958;DHT22;4024;52.172;5.378;2023-02-01T00:56:01;8.10;99.90
7958;DHT22;4024;52.172;5.378;2023-02-01T00:58:26;8.10;99.90
7958;DHT22;4024;52.172;5.378;2023-02-01T01:01:07;8.20;99.90
7958;DHT22;4024;52.172;5.378;2023-02-01T01:03:35;8.10;99.90
7958;DHT22;4024;52.172;5.378;2023-02-01T01:06:04;8.20;99.90
7958;DHT22;4024;52.172;5.378;2023-02-01T01:08:31;8.20;99.90
7958;DHT22;4024;52.172;5.378;2023-02-01T01:10:56;8.20;99.90
7958;DHT22;4024;52.172;5.378;2023-02-01T01:13:22;8.20;99.90
7958;DHT22;4024;52.172;5.378;2023-02-01T01:15:48;8.20;99.90
7958;DHT22;4024;52.172;5.378;2023-02-01T01:18:15;8.20;99.90
7958;DHT22;4024;52.172;5.378;2023-02-01T01:20:41;8.30;99.90
7958;DHT22;4024;52.172;5.378;2023-02-01T01:23:07;8.30;99.90
7958;DHT22;4024;52.172;5.378;2023-02-01T01:25:40;8.20;99.90
7958;DHT22;4024;52.172;5.378;2023-02-01T01:28:06;8.20;99.90
7958;DHT22;4024;52.172;5.378;2023-02-01T01:30:35;8.30;99.90
7958;DHT22;4024;52.172;5.378;2023-02-01T01:33:00;8.20;99.90
7958;DHT22;4024;52.172;5.378;2023-02-01T01:35:29;8.20;99.90
7958;DHT22;4024;52.172;5.378;2023-02-01T01:37:55;8.20;99.90
7958;DHT22;4024;52.172;5.378;2023-02-01T01:40:21;8.30;99.90
7958;DHT22;4024;52.172;5.378;2023-02-01T01:42:47;8.50;99.90
7958;DHT22;4024;52.172;5.378;2023-02-01T01:45:25;8.30;99.90
7958;DHT22;4024;52.172;5.378;2023-02-01T01:47:56;8.30;99.90
7958;DHT22;4024;52.172;5.378;2023-02-01T01:50:29;8.30;99.90
7958;DHT22;4024;52.172;5.378;2023-02-01T01:52:57;8.30;99.90
7958;DHT22;4024;52.172;5.378;2023-02-01T01:55:26;8.40;99.90
7958;DHT22;4024;52.172;5.378;2023-02-01T01:57:59;8.40;99.90
7958;DHT22;4024;52.172;5.378;2023-02-01T02:00:25;8.40;99.90
7958;DHT22;4024;52.172;5.378;2023-02-01T02:02:57;8.40;99.90
7958;DHT22;4024;52.172;5.378;2023-02-01T02:05:23;8.40;99.90
7958;DHT22;4024;52.172;5.378;2023-02-01T02:07:51;8.50;99.90
7958;DHT22;4024;52.172;5.378;2023-02-01T02:10:18;8.60;99.90
7958;DHT22;4024;52.172;5.378;2023-02-01T02:12:46;8.60;99.90
7958;DHT22;4024;52.172;5.378;2023-02-01T02:15:14;8.60;99.90
7958;DHT22;4024;52.172;5.378;2023-02-01T02:18:03;8.60;99.90
7958;DHT22;4024;52.172;5.378;2023-02-01T02:21:09;8.60;99.90
7958;DHT22;4024;52.172;5.378;2023-02-01T02:24:17;8.70;99.90
7958;DHT22;4024;52.172;5.378;2023-02-01T02:27:02;8.70;99.90
7958;DHT22;4024;52.172;5.378;2023-02-01T02:35:39;8.80;99.90
7958;DHT22;4024;52.172;5.378;2023-02-01T02:38:18;8.80;99.90
7958;DHT22;4024;52.172;5.378;2023-02-01T02:43:50;8.80;99.90
7958;DHT22;4024;52.172;5.378;2023-02-01T02:46:47;8.90;99.90
7958;DHT22;4024;52.172;5.378;2023-02-01T02:50:38;8.80;99.90
7958;DHT22;4024;52.172;5.378;2023-02-01T02:53:08;8.90;99.90
7958;DHT22;4024;52.172;5.378;2023-02-01T02:55:55;8.90;99.90
7958;DHT22;4024;52.172;5.378;2023-02-01T02:58:42;8.90;99.90
7958;DHT22;4024;52.172;5.378;2023-02-01T03:01:28;8.90;99.90
7958;DHT22;4024;52.172;5.378;2023-02-01T03:04:13;8.90;99.90
7958;DHT22;4024;52.172;5.378;2023-02-01T03:06:43;9.00;99.90
7958;DHT22;4024;52.172;5.378;2023-02-01T03:09:13;8.90;99.90
7958;DHT22;4024;52.172;5.378;2023-02-01T03:11:44;8.90;99.90
7958;DHT22;4024;52.172;5.378;2023-02-01T03:14:33;8.90;99.90
7958;DHT22;4024;52.172;5.378;2023-02-01T03:17:12;8.90;99.90
7958;DHT22;4024;52.172;5.378;2023-02-01T03:19:43;8.90;99.90
7958;DHT22;4024;52.172;5.378;2023-02-01T03:22:15;8.90;99.90
7958;DHT22;4024;52.172;5.378;2023-02-01T03:24:45;8.80;99.90
7958;DHT22;4024;52.172;5.378;2023-02-01T03:27:19;8.80;99.90
7958;DHT22;4024;52.172;5.378;2023-02-01T03:32:15;8.70;99.90
7958;DHT22;4024;52.172;5.378;2023-02-01T03:34:41;8.70;99.90
7958;DHT22;4024;52.172;5.378;2023-02-01T03:37:10;8.70;99.90
7958;DHT22;4024;52.172;5.378;2023-02-01T03:39:48;8.70;99.90
7958;DHT22;4024;52.172;5.378;2023-02-01T03:42:21;8.60;99.90
7958;DHT22;4024;52.172;5.378;2023-02-01T03:45:04;8.60;99.90
7958;DHT22;4024;52.172;5.378;2023-02-01T03:47:35;8.60;99.90
7958;DHT22;4024;52.172;5.378;2023-02-01T03:50:09;8.60;99.90
7958;DHT22;4024;52.172;5.378;2023-02-01T03:52:51;8.60;99.90
7958;DHT22;4024;52.172;5.378;2023-02-01T03:55:20;8.60;99.90
7958;DHT22;4024;52.172;5.378;2023-02-01T03:57:53;8.60;99.90
7958;DHT22;4024;52.172;5.378;2023-02-01T04:00:25;8.50;99.90
7958;DHT22;4024;52.172;5.378;2023-02-01T04:02:52;8.50;99.90
7958;DHT22;4024;52.172;5.378;2023-02-01T04:05:18;8.50;99.90
7958;DHT22;4024;52.172;5.378;2023-02-01T04:07:44;8.50;99.90
7958;DHT22;4024;52.172;5.378;2023-02-01T04:10:11;8.50;99.90
7958;DHT22;4024;52.172;5.378;2023-02-01T04:12:37;8.50;99.90
7958;DHT22;4024;52.172;5.378;2023-02-01T04:15:03;8.60;99.90
7958;DHT22;4024;52.172;5.378;2023-02-01T04:17:29;8.60;99.90
7958;DHT22;4024;52.172;5.378;2023-02-01T04:19:55;8.60;99.90
7958;DHT22;4024;52.172;5.378;2023-02-01T04:22:21;8.60;99.90
7958;DHT22;4024;52.172;5.378;2023-02-01T04:24:47;8.60;99.90
7958;DHT22;4024;52.172;5.378;2023-02-01T04:27:12;8.60;99.90
7958;DHT22;4024;52.172;5.378;2023-02-01T04:29:38;8.70;99.90
7958;DHT22;4024;52.172;5.378;2023-02-01T04:32:04;8.70;99.90
7958;DHT22;4024;52.172;5.378;2023-02-01T04:34:30;8.80;99.90
7958;DHT22;4024;52.172;5.378;2023-02-01T04:36:57;8.80;99.90
7958;DHT22;4024;52.172;5.378;2023-02-01T04:39:22;8.80;99.90
7958;DHT22;4024;52.172;5.378;2023-02-01T04:41:48;8.80;99.90
7958;DHT22;4024;52.172;5.378;2023-02-01T04:44:16;8.80;99.90
7958;DHT22;4024;52.172;5.378;2023-02-01T04:46:42;8.80;99.90
7958;DHT22;4024;52.172;5.378;2023-02-01T04:49:11;8.80;99.90
7958;DHT22;4024;52.172;5.378;2023-02-01T04:51:38;8.80;99.90
7958;DHT22;4024;52.172;5.378;2023-02-01T04:54:03;8.80;99.90
7958;DHT22;4024;52.172;5.378;2023-02-01T04:56:29;8.80;99.90
7958;DHT22;4024;52.172;5.378;2023-02-01T04:58:55;8.70;99.90
7958;DHT22;4024;52.172;5.378;2023-02-01T05:01:21;8.80;99.90
7958;DHT22;4024;52.172;5.378;2023-02-01T05:03:47;8.70;99.90
7958;DHT22;4024;52.172;5.378;2023-02-01T05:06:13;8.70;99.90
7958;DHT22;4024;52.172;5.378;2023-02-01T05:08:39;8.70;99.90
7958;DHT22;4024;52.172;5.378;2023-02-01T05:11:05;8.70;99.90
7958;DHT22;4024;52.172;5.378;2023-02-01T05:13:32;8.60;99.90
7958;DHT22;4024;52.172;5.378;2023-02-01T05:16:16;8.60;99.90
7958;DHT22;4024;52.172;5.378;2023-02-01T05:18:42;8.60;99.90
7958;DHT22;4024;52.172;5.378;2023-02-01T05:21:08;8.60;99.90
7958;DHT22;4024;52.172;5.378;2023-02-01T05:23:33;8.60;99.90
7958;DHT22;4024;52.172;5.378;2023-02-01T05:26:19;8.60;99.90
7958;DHT22;4024;52.172;5.378;2023-02-01T05:28:45;8.60;99.90
7958;DHT22;4024;52.172;5.378;2023-02-01T05:31:11;8.50;99.90
7958;DHT22;4024;52.172;5.378;2023-02-01T05:33:36;8.60;99.90
7958;DHT22;4024;52.172;5.378;2023-02-01T05:36:02;8.60;99.90
7958;DHT22;4024;52.172;5.378;2023-02-01T05:38:28;8.60;99.90
7958;DHT22;4024;52.172;5.378;2023-02-01T05:40:55;8.60;99.90
7958;DHT22;4024;52.172;5.378;2023-02-01T05:43:21;8.70;99.90
7958;DHT22;4024;52.172;5.378;2023-02-01T05:45:47;8.70;99.90
7958;DHT22;4024;52.172;5.378;2023-02-01T05:48:12;8.70;99.90
7958;DHT22;4024;52.172;5.378;2023-02-01T05:50:38;8.70;99.90
7958;DHT22;4024;52.172;5.378;2023-02-01T05:53:04;8.70;99.90
7958;DHT22;4024;52.172;5.378;2023-02-01T05:55:30;8.70;99.90
7958;DHT22;4024;52.172;5.378;2023-02-01T05:57:56;8.70;99.90
7958;DHT22;4024;52.172;5.378;2023-02-01T06:00:22;8.80;99.90
7958;DHT22;4024;52.172;5.378;2023-02-01T06:02:48;8.80;99.90
7958;DHT22;4024;52.172;5.378;2023-02-01T06:05:13;8.80;99.90
7958;DHT22;4024;52.172;5.378;2023-02-01T06:07:39;8.80;99.90
7958;DHT22;4024;52.172;5.378;2023-02-01T06:10:05;8.80;99.90
7958;DHT22;4024;52.172;5.378;2023-02-01T06:12:30;8.80;99.90
7958;DHT22;4024;52.172;5.378;2023-02-01T06:14:56;8.90;99.90
7958;DHT22;4024;52.172;5.378;2023-02-01T06:17:21;8.90;99.90
7958;DHT22;4024;52.172;5.378;2023-02-01T06:19:47;8.90;99.90
7958;DHT22;4024;52.172;5.378;2023-02-01T06:22:14;8.90;99.90
7958;DHT22;4024;52.172;5.378;2023-02-01T06:24:40;8.90;99.90
7958;DHT22;4024;52.172;5.378;2023-02-01T06:27:06;8.90;99.90
7958;DHT22;4024;52.172;5.378;2023-02-01T06:29:32;8.90;99.90
7958;DHT22;4024;52.172;5.378;2023-02-01T06:31:58;8.90;99.90
7958;DHT22;4024;52.172;5.378;2023-02-01T06:34:24;8.90;99.90
7958;DHT22;4024;52.172;5.378;2023-02-01T06:36:50;8.90;99.90
7958;DHT22;4024;52.172;5.378;2023-02-01T06:39:16;8.90;99.90
7958;DHT22;4024;52.172;5.378;2023-02-01T06:41:45;8.80;99.90
7958;DHT22;4024;52.172;5.378;2023-02-01T06:44:11;8.80;99.90
7958;DHT22;4024;52.172;5.378;2023-02-01T06:46:36;8.70;99.90
7958;DHT22;4024;52.172;5.378;2023-02-01T06:49:02;8.70;99.90
7958;DHT22;4024;52.172;5.378;2023-02-01T06:51:28;8.70;99.90
7958;DHT22;4024;52.172;5.378;2023-02-01T06:53:55;8.70;99.90
7958;DHT22;4024;52.172;5.378;2023-02-01T06:56:21;8.60;99.90
7958;DHT22;4024;52.172;5.378;2023-02-01T06:58:46;8.60;99.90
7958;DHT22;4024;52.172;5.378;2023-02-01T07:01:13;8.60;99.90
7958;DHT22;4024;52.172;5.378;2023-02-01T07:03:39;8.60;99.90
7958;DHT22;4024;52.172;5.378;2023-02-01T07:06:05;8.60;99.90
7958;DHT22;4024;52.172;5.378;2023-02-01T07:08:33;8.60;99.90
7958;DHT22;4024;52.172;5.378;2023-02-01T07:11:04;8.50;99.90
7958;DHT22;4024;52.172;5.378;2023-02-01T07:13:30;8.50;99.90
7958;DHT22;4024;52.172;5.378;2023-02-01T07:16:00;8.50;99.90
7958;DHT22;4024;52.172;5.378;2023-02-01T07:18:28;8.50;99.90
7958;DHT22;4024;52.172;5.378;2023-02-01T07:20:55;8.60;99.90
7958;DHT22;4024;52.172;5.378;2023-02-01T07:23:21;8.50;99.90
7958;DHT22;4024;52.172;5.378;2023-02-01T07:25:47;8.50;99.90
7958;DHT22;4024;52.172;5.378;2023-02-01T07:28:12;8.60;99.90
7958;DHT22;4024;52.172;5.378;2023-02-01T07:30:38;8.60;99.90
7958;DHT22;4024;52.172;5.378;2023-02-01T07:33:04;8.60;99.90
7958;DHT22;4024;52.172;5.378;2023-02-01T07:35:30;8.60;99.90
7958;DHT22;4024;52.172;5.378;2023-02-01T07:37:57;8.50;99.90
7958;DHT22;4024;52.172;5.378;2023-02-01T07:40:23;8.50;99.90
7958;DHT22;4024;52.172;5.378;2023-02-01T07:42:54;8.50;99.90
7958;DHT22;4024;52.172;5.378;2023-02-01T07:45:20;8.60;99.90
7958;DHT22;4024;52.172;5.378;2023-02-01T07:47:46;8.60;99.90
7958;DHT22;4024;52.172;5.378;2023-02-01T07:50:12;8.50;99.90
7958;DHT22;4024;52.172;5.378;2023-02-01T07:52:38;8.50;99.90
7958;DHT22;4024;52.172;5.378;2023-02-01T07:55:05;8.50;99.90
7958;DHT22;4024;52.172;5.378;2023-02-01T07:57:31;8.50;99.90
7958;DHT22;4024;52.172;5.378;2023-02-01T07:59:57;8.50;99.90
7958;DHT22;4024;52.172;5.378;2023-02-01T08:02:41;8.50;99.90
7958;DHT22;4024;52.172;5.378;2023-02-01T08:05:07;8.50;99.90
7958;DHT22;4024;52.172;5.378;2023-02-01T08:07:32;8.50;99.90
7958;DHT22;4024;52.172;5.378;2023-02-01T08:09:58;8.50;99.90
7958;DHT22;4024;52.172;5.378;2023-02-01T08:12:25;8.50;99.90
7958;DHT22;4024;52.172;5.378;2023-02-01T08:14:52;8.50;99.90
7958;DHT22;4024;52.172;5.378;2023-02-01T08:17:19;8.50;99.90
7958;DHT22;4024;52.172;5.378;2023-02-01T08:19:44;8.50;99.90
7958;DHT22;4024;52.172;5.378;2023-02-01T08:22:10;8.50;99.90
7958;DHT22;4024;52.172;5.378;2023-02-01T08:24:36;8.60;99.90
7958;DHT22;4024;52.172;5.378;2023-02-01T08:27:05;8.60;99.90
7958;DHT22;4024;52.172;5.378;2023-02-01T08:29:30;8.60;99.90
7958;DHT22;4024;52.172;5.378;2023-02-01T08:31:56;8.60;99.90
7958;DHT22;4024;52.172;5.378;2023-02-01T08:34:22;8.60;99.90
7958;DHT22;4024;52.172;5.378;2023-02-01T08:36:48;8.70;99.90
7958;DHT22;4024;52.172;5.378;2023-02-01T08:39:14;8.70;99.90
7958;DHT22;4024;52.172;5.378;2023-02-01T08:41:40;8.80;99.90
7958;DHT22;4024;52.172;5.378;2023-02-01T08:44:07;8.80;99.90
7958;DHT22;4024;52.172;5.378;2023-02-01T08:46:33;8.80;99.90
7958;DHT22;4024;52.172;5.378;2023-02-01T08:48:59;8.80;99.90
7958;DHT22;4024;52.172;5.378;2023-02-01T08:51:24;8.80;99.90
7958;DHT22;4024;52.172;5.378;2023-02-01T08:53:50;8.80;99.90
7958;DHT22;4024;52.172;5.378;2023-02-01T08:56:16;8.90;99.90
7958;DHT22;4024;52.172;5.378;2023-02-01T08:58:43;8.90;99.90
7958;DHT22;4024;52.172;5.378;2023-02-01T09:01:12;8.90;99.90
7958;DHT22;4024;52.172;5.378;2023-02-01T09:03:38;9.00;99.90
7958;DHT22;4024;52.172;5.378;2023-02-01T09:06:06;9.00;99.90
7958;DHT22;4024;52.172;5.378;2023-02-01T09:08:33;9.00;99.90
7958;DHT22;4024;52.172;5.378;2023-02-01T09:11:03;9.00;99.90
7958;DHT22;4024;52.172;5.378;2023-02-01T09:13:29;9.00;99.90
7958;DHT22;4024;52.172;5.378;2023-02-01T09:15:55;9.10;99.90
7958;DHT22;4024;52.172;5.378;2023-02-01T09:18:21;9.10;99.90
7958;DHT22;4024;52.172;5.378;2023-02-01T09:20:47;9.30;99.90
7958;DHT22;4024;52.172;5.378;2023-02-01T09:23:12;9.30;99.90
7958;DHT22;4024;52.172;5.378;2023-02-01T09:25:38;9.30;99.90
7958;DHT22;4024;52.172;5.378;2023-02-01T09:28:04;9.40;99.90
7958;DHT22;4024;52.172;5.378;2023-02-01T09:30:32;9.40;99.90
7958;DHT22;4024;52.172;5.378;2023-02-01T09:32:58;9.50;99.90
7958;DHT22;4024;52.172;5.378;2023-02-01T09:35:23;9.60;99.90
7958;DHT22;4024;52.172;5.378;2023-02-01T09:37:49;9.60;99.90
7958;DHT22;4024;52.172;5.378;2023-02-01T09:40:16;9.60;99.90
7958;DHT22;4024;52.172;5.378;2023-02-01T09:42:59;9.70;99.90
7958;DHT22;4024;52.172;5.378;2023-02-01T09:48:21;9.70;99.90
7958;DHT22;4024;52.172;5.378;2023-02-01T09:50:57;9.70;99.90
7958;DHT22;4024;52.172;5.378;2023-02-01T09:53:32;9.70;99.90
7958;DHT22;4024;52.172;5.378;2023-02-01T09:56:07;9.80;99.90
7958;DHT22;4024;52.172;5.378;2023-02-01T09:58:49;9.80;99.90
7958;DHT22;4024;52.172;5.378;2023-02-01T10:01:20;9.80;99.90
7958;DHT22;4024;52.172;5.378;2023-02-01T10:03:48;9.80;99.90
7958;DHT22;4024;52.172;5.378;2023-02-01T10:22:46;9.80;99.90
7958;DHT22;4024;52.172;5.378;2023-02-01T10:25:26;9.70;99.90
7958;DHT22;4024;52.172;5.378;2023-02-01T10:27:52;9.70;99.90
7958;DHT22;4024;52.172;5.378;2023-02-01T10:32:48;9.70;99.90
7958;DHT22;4024;52.172;5.378;2023-02-01T10:35:18;9.70;99.90
7958;DHT22;4024;52.172;5.378;2023-02-01T10:37:45;9.60;99.90
7958;DHT22;4024;52.172;5.378;2023-02-01T10:40:23;9.60;99.90
7958;DHT22;4024;52.172;5.378;2023-02-01T10:42:56;9.60;99.90
7958;DHT22;4024;52.172;5.378;2023-02-01T10:45:26;9.60;99.90
7958;DHT22;4024;52.172;5.378;2023-02-01T10:47:56;9.60;99.90
7958;DHT22;4024;52.172;5.378;2023-02-01T10:50:41;9.60;99.90
7958;DHT22;4024;52.172;5.378;2023-02-01T10:53:20;9.60;99.90
7958;DHT22;4024;52.172;5.378;2023-02-01T10:55:52;9.60;99.90
7958;DHT22;4024;52.172;5.378;2023-02-01T10:58:33;9.60;99.90
7958;DHT22;4024;52.172;5.378;2023-02-01T11:04:03;9.60;99.90
7958;DHT22;4024;52.172;5.378;2023-02-01T11:06:33;9.70;99.90
7958;DHT22;4024;52.172;5.378;2023-02-01T11:09:10;9.70;99.90
7958;DHT22;4024;52.172;5.378;2023-02-01T11:14:36;9.70;99.90
7958;DHT22;4024;52.172;5.378;2023-02-01T11:17:24;9.80;99.90
7958;DHT22;4024;52.172;5.378;2023-02-01T11:20:00;9.80;99.90
7958;DHT22;4024;52.172;5.378;2023-02-01T11:22:27;9.80;99.90
7958;DHT22;4024;52.172;5.378;2023-02-01T11:24:55;9.90;99.90
7958;DHT22;4024;52.172;5.378;2023-02-01T11:27:22;9.80;99.90
7958;DHT22;4024;52.172;5.378;2023-02-01T11:29:55;9.80;99.90
7958;DHT22;4024;52.172;5.378;2023-02-01T11:32:23;9.80;99.90
7958;DHT22;4024;52.172;5.378;2023-02-01T11:37:31;9.90;99.90
7958;DHT22;4024;52.172;5.378;2023-02-01T11:39:59;9.90;99.90
7958;DHT22;4024;52.172;5.378;2023-02-01T11:42:28;9.90;99.90
7958;DHT22;4024;52.172;5.378;2023-02-01T11:47:55;10.00;99.90
7958;DHT22;4024;52.172;5.378;2023-02-01T12:07:00;10.20;99.90
7958;DHT22;4024;52.172;5.378;2023-02-01T12:20:28;10.30;99.90
7958;DHT22;4024;52.172;5.378;2023-02-01T12:37:01;10.50;99.90
7958;DHT22;4024;52.172;5.378;2023-02-01T12:45:43;10.50;99.90
7958;DHT22;4024;52.172;5.378;2023-02-01T12:48:39;10.40;99.90
7958;DHT22;4024;52.172;5.378;2023-02-01T12:51:12;10.50;99.90
7958;DHT22;4024;52.172;5.378;2023-02-01T12:53:51;10.50;99.90
7958;DHT22;4024;52.172;5.378;2023-02-01T12:58:58;10.50;99.90
7958;DHT22;4024;52.172;5.378;2023-02-01T13:01:46;10.40;99.90
7958;DHT22;4024;52.172;5.378;2023-02-01T13:07:18;10.50;99.90
7958;DHT22;4024;52.172;5.378;2023-02-01T13:09:56;10.40;99.90
7958;DHT22;4024;52.172;5.378;2023-02-01T13:12:37;10.50;99.90
7958;DHT22;4024;52.172;5.378;2023-02-01T13:17:47;10.50;99.90
7958;DHT22;4024;52.172;5.378;2023-02-01T13:21:21;10.50;99.90
7958;DHT22;4024;52.172;5.378;2023-02-01T13:23:46;10.50;99.90
7958;DHT22;4024;52.172;5.378;2023-02-01T13:26:15;10.40;99.90
7958;DHT22;4024;52.172;5.378;2023-02-01T13:29:05;10.40;99.90
7958;DHT22;4024;52.172;5.378;2023-02-01T13:42:58;10.40;99.90
7958;DHT22;4024;52.172;5.378;2023-02-01T13:45:31;10.40;99.90
7958;DHT22;4024;52.172;5.378;2023-02-01T13:48:01;10.40;99.90
7958;DHT22;4024;52.172;5.378;2023-02-01T13:50:38;10.50;99.90
7958;DHT22;4024;52.172;5.378;2023-02-01T13:55:43;10.50;99.90
7958;DHT22;4024;52.172;5.378;2023-02-01T14:00:46;10.60;99.90
7958;DHT22;4024;52.172;5.378;2023-02-01T14:03:17;10.60;99.90
7958;DHT22;4024;52.172;5.378;2023-02-01T14:08:13;10.60;99.90
7958;DHT22;4024;52.172;5.378;2023-02-01T14:13:33;10.70;99.90
7958;DHT22;4024;52.172;5.378;2023-02-01T14:21:19;10.70;99.90
7958;DHT22;4024;52.172;5.378;2023-02-01T14:24:01;10.70;99.90
7958;DHT22;4024;52.172;5.378;2023-02-01T14:26:47;10.70;99.90
7958;DHT22;4024;52.172;5.378;2023-02-01T14:37:12;10.70;99.90
7958;DHT22;4024;52.172;5.378;2023-02-01T14:39:56;10.70;99.90
7958;DHT22;4024;52.172;5.378;2023-02-01T14:42:47;10.70;99.90
7958;DHT22;4024;52.172;5.378;2023-02-01T15:01:26;10.60;99.90
7958;DHT22;4024;52.172;5.378;2023-02-01T15:04:14;10.60;99.90
7958;DHT22;4024;52.172;5.378;2023-02-01T15:06:54;10.60;99.90
7958;DHT22;4024;52.172;5.378;2023-02-01T15:09:35;10.60;99.90
7958;DHT22;4024;52.172;5.378;2023-02-01T15:12:16;10.60;99.90
7958;DHT22;4024;52.172;5.378;2023-02-01T15:15:10;10.60;99.90
7958;DHT22;4024;52.172;5.378;2023-02-01T15:17:36;10.50;99.90
7958;DHT22;4024;52.172;5.378;2023-02-01T15:20:03;10.50;99.90
7958;DHT22;4024;52.172;5.378;2023-02-01T15:22:31;10.50;99.90
7958;DHT22;4024;52.172;5.378;2023-02-01T15:24:58;10.50;99.90
7958;DHT22;4024;52.172;5.378;2023-02-01T15:27:26;10.50;99.90
7958;DHT22;4024;52.172;5.378;2023-02-01T15:29:54;10.50;99.90
7958;DHT22;4024;52.172;5.378;2023-02-01T15:33:03;10.50;99.90
7958;DHT22;4024;52.172;5.378;2023-02-01T15:35:38;10.50;99.90
7958;DHT22;4024;52.172;5.378;2023-02-01T15:41:20;10.50;99.90
7958;DHT22;4024;52.172;5.378;2023-02-01T15:46:39;10.50;99.90
7958;DHT22;4024;52.172;5.378;2023-02-01T15:49:11;10.60;99.90
7958;DHT22;4024;52.172;5.378;2023-02-01T15:51:44;10.60;99.90
7958;DHT22;4024;52.172;5.378;2023-02-01T15:54:20;10.60;99.90
7958;DHT22;4024;52.172;5.378;2023-02-01T15:56:51;10.60;99.90
7958;DHT22;4024;52.172;5.378;2023-02-01T15:59:23;10.60;99.90
7958;DHT22;4024;52.172;5.378;2023-02-01T16:01:50;10.60;99.90
7958;DHT22;4024;52.172;5.378;2023-02-01T16:04:18;10.60;99.90
7958;DHT22;4024;52.172;5.378;2023-02-01T16:06:53;10.60;99.90
7958;DHT22;4024;52.172;5.378;2023-02-01T16:09:21;10.60;99.90
7958;DHT22;4024;52.172;5.378;2023-02-01T16:11:59;10.60;99.90
7958;DHT22;4024;52.172;5.378;2023-02-01T16:14:25;10.60;99.90
7958;DHT22;4024;52.172;5.378;2023-02-01T16:16:52;10.60;99.90
7958;DHT22;4024;52.172;5.378;2023-02-01T16:19:18;10.60;99.90
7958;DHT22;4024;52.172;5.378;2023-02-01T16:21:44;10.60;99.90
7958;DHT22;4024;52.172;5.378;2023-02-01T16:24:09;10.60;99.90
7958;DHT22;4024;52.172;5.378;2023-02-01T16:26:35;10.60;99.90
7958;DHT22;4024;52.172;5.378;2023-02-01T16:29:02;10.60;99.90
7958;DHT22;4024;52.172;5.378;2023-02-01T16:31:33;10.60;99.90
7958;DHT22;4024;52.172;5.378;2023-02-01T16:34:00;10.60;99.90
7958;DHT22;4024;52.172;5.378;2023-02-01T16:36:26;10.60;99.90
7958;DHT22;4024;52.172;5.378;2023-02-01T16:38:53;10.60;99.90
7958;DHT22;4024;52.172;5.378;2023-02-01T16:41:21;10.60;99.90
7958;DHT22;4024;52.172;5.378;2023-02-01T16:43:51;10.60;99.90
7958;DHT22;4024;52.172;5.378;2023-02-01T16:46:20;10.60;99.90
7958;DHT22;4024;52.172;5.378;2023-02-01T16:48:52;10.60;99.90
7958;DHT22;4024;52.172;5.378;2023-02-01T16:51:20;10.60;99.90
7958;DHT22;4024;52.172;5.378;2023-02-01T16:53:46;10.60;99.90
7958;DHT22;4024;52.172;5.378;2023-02-01T16:56:22;10.60;99.90
7958;DHT22;4024;52.172;5.378;2023-02-01T16:58:48;10.60;99.90
7958;DHT22;4024;52.172;5.378;2023-02-01T17:01:17;10.60;99.90
7958;DHT22;4024;52.172;5.378;2023-02-01T17:03:44;10.60;99.90
7958;DHT22;4024;52.172;5.378;2023-02-01T17:06:12;10.60;99.90
7958;DHT22;4024;52.172;5.378;2023-02-01T17:08:41;10.60;99.90
7958;DHT22;4024;52.172;5.378;2023-02-01T17:11:10;10.60;99.90
7958;DHT22;4024;52.172;5.378;2023-02-01T17:13:37;10.60;99.90
7958;DHT22;4024;52.172;5.378;2023-02-01T17:16:12;10.60;99.90
7958;DHT22;4024;52.172;5.378;2023-02-01T17:18:40;10.60;99.90
7958;DHT22;4024;52.172;5.378;2023-02-01T17:21:06;10.60;99.90
7958;DHT22;4024;52.172;5.378;2023-02-01T17:23:32;10.50;99.90
7958;DHT22;4024;52.172;5.378;2023-02-01T17:25:58;10.60;99.90
7958;DHT22;4024;52.172;5.378;2023-02-01T17:28:24;10.60;99.90
7958;DHT22;4024;52.172;5.378;2023-02-01T17:30:50;10.60;99.90
7958;DHT22;4024;52.172;5.378;2023-02-01T17:33:31;10.60;99.90
7958;DHT22;4024;52.172;5.378;2023-02-01T17:35:58;10.60;99.90
7958;DHT22;4024;52.172;5.378;2023-02-01T17:38:25;10.60;99.90
7958;DHT22;4024;52.172;5.378;2023-02-01T17:40:51;10.60;99.90
7958;DHT22;4024;52.172;5.378;2023-02-01T17:43:22;10.70;99.90
7958;DHT22;4024;52.172;5.378;2023-02-01T17:45:55;10.60;99.90
7958;DHT22;4024;52.172;5.378;2023-02-01T17:48:22;10.60;99.90
7958;DHT22;4024;52.172;5.378;2023-02-01T17:50:49;10.60;99.90
7958;DHT22;4024;52.172;5.378;2023-02-01T17:53:19;10.60;99.90
7958;DHT22;4024;52.172;5.378;2023-02-01T17:55:49;10.60;99.90
7958;DHT22;4024;52.172;5.378;2023-02-01T17:58:16;10.60;99.90
7958;DHT22;4024;52.172;5.378;2023-02-01T18:00:43;10.70;99.90
7958;DHT22;4024;52.172;5.378;2023-02-01T18:03:26;10.70;99.90
7958;DHT22;4024;52.172;5.378;2023-02-01T18:05:54;10.70;99.90
7958;DHT22;4024;52.172;5.378;2023-02-01T18:08:25;10.70;99.90
7958;DHT22;4024;52.172;5.378;2023-02-01T18:10:53;10.70;99.90
7958;DHT22;4024;52.172;5.378;2023-02-01T18:13:20;10.70;99.90
7958;DHT22;4024;52.172;5.378;2023-02-01T18:15:46;10.70;99.90
7958;DHT22;4024;52.172;5.378;2023-02-01T18:18:12;10.60;99.90
7958;DHT22;4024;52.172;5.378;2023-02-01T18:20:40;10.50;99.90
7958;DHT22;4024;52.172;5.378;2023-02-01T18:23:22;10.30;99.90
7958;DHT22;4024;52.172;5.378;2023-02-01T18:25:49;10.10;99.90
7958;DHT22;4024;52.172;5.378;2023-02-01T18:28:17;10.00;99.90
7958;DHT22;4024;52.172;5.378;2023-02-01T18:30:46;9.90;99.90
7958;DHT22;4024;52.172;5.378;2023-02-01T18:33:18;9.80;99.90
7958;DHT22;4024;52.172;5.378;2023-02-01T18:35:44;9.60;99.90
7958;DHT22;4024;52.172;5.378;2023-02-01T18:38:10;9.60;99.90
7958;DHT22;4024;52.172;5.378;2023-02-01T18:40:45;9.50;99.90
7958;DHT22;4024;52.172;5.378;2023-02-01T18:43:13;9.50;99.90
7958;DHT22;4024;52.172;5.378;2023-02-01T18:45:40;9.40;99.90
7958;DHT22;4024;52.172;5.378;2023-02-01T18:48:08;9.40;99.90
7958;DHT22;4024;52.172;5.378;2023-02-01T18:50:36;9.40;99.90
7958;DHT22;4024;52.172;5.378;2023-02-01T18:53:04;9.40;99.90
7958;DHT22;4024;52.172;5.378;2023-02-01T18:55:30;9.30;99.90
7958;DHT22;4024;52.172;5.378;2023-02-01T18:57:57;9.40;99.90
7958;DHT22;4024;52.172;5.378;2023-02-01T19:00:24;9.40;99.90
7958;DHT22;4024;52.172;5.378;2023-02-01T19:02:49;9.40;99.90
7958;DHT22;4024;52.172;5.378;2023-02-01T19:05:16;9.40;99.90
7958;DHT22;4024;52.172;5.378;2023-02-01T19:07:42;9.30;99.90
7958;DHT22;4024;52.172;5.378;2023-02-01T19:10:13;9.30;99.90